Terminal Aerodrome Forecast
Issued by NWS Boston, MA

Current Version | Previous Version | Text Only | Print | Product List | Glossary On
Versions: 1 2 3 4 5 6 7 8 9 10 11 12 13 14 15 16 17 18 19 20 21 22 23 24 25 26 27 28 29
000
FTUS41 KBOX 081720
TAFBDL
TAF
KBDL 081720Z 0818/0924 27007KT P6SM OVC080
     FM091500 29010G26KT P6SM FEW250
     FM092000 31012G27KT P6SM BKN045
     FM092300 31011G26KT P6SM SCT200=

USA.gov is the U.S. government's official web portal to all federal, state and local government web resources and services.